Weather at Brown Field Municipal Airport

Public forecast

Using degrees Fahrenheit for public forecast. Weather courtesy of forecast.io.

Current aviation weather report (METAR) for Brown Field Municipal Airport

2024/07/25 18:53 (retrieved 30 minutes ago)

KSDM 251853Z VRB06KT 9SM CLR 28/19 A3002 RMK AO2 SLP161 T02830189

Closest aviation forecast (TAF) to Brown Field Municipal Airport

Closest forecast is Aeropuerto Internacional Gral. Abelardo Rodriguez, 1.6 nm (3.0 km) S.

2024/07/25 18:41 (retrieved 42 minutes ago)

TAF MMTJ 251735Z 2518/2618 25010KT P6SM SKC TX28/2521Z TN19/2612Z FM252100 25015KT P6SM SKC FM260300 27006KT P6SM SKC TEMPO 2611/2615 2SM BR SCT010